Time;durP1;ratioP1;P1;durP2;ratioP2;P2;SDS_P1;SDS_P2;PMS_P1;PMS_P2;Temp;Humidity;BMP_temperature;BMP_pressure;BME280_temperature;BME280_humidity;BME280_pressure;Samples;Min_cycle;Max_cycle;Signal;HPM_P1;HPM_P2
2021/11/09 00:00:10;;;;;;;17.43;10.10;;;0.50;99.90;;;;;;5059241;28;20407;-80
2021/11/09 00:02:36;;;;;;;18.17;9.70;;;;;;;;;;5077434;28;20411;-80
2021/11/09 00:05:04;;;;;;;20.93;10.40;;;;;;;;;;5058402;28;20439;-80
2021/11/09 00:07:38;;;;;;;21.50;10.50;;;;;;;;;;5076497;28;20403;-80
2021/11/09 00:10:08;;;;;;;20.03;9.97;;;0.60;99.90;;;;;;5058501;28;20407;-80
2021/11/09 00:12:55;;;;;;;19.13;10.13;;;0.60;99.90;;;;;;5076241;28;20459;-80
2021/11/09 00:15:22;;;;;;;22.10;10.33;;;0.60;99.90;;;;;;5063119;28;20434;-79
2021/11/09 00:17:53;;;;;;;17.27;10.73;;;0.60;99.90;;;;;;5066625;28;20415;-80
2021/11/09 00:20:20;;;;;;;20.97;10.47;;;0.60;99.90;;;;;;5059557;28;20500;-80
2021/11/09 00:22:47;;;;;;;22.27;10.80;;;;;;;;;;5079605;28;20417;-79
2021/11/09 00:25:13;;;;;;;17.00;10.03;;;;;;;;;;5064512;28;20421;-80
2021/11/09 00:27:40;;;;;;;24.90;9.17;;;;;;;;;;5065613;28;20417;-80
2021/11/09 00:30:08;;;;;;;19.43;10.07;;;0.60;99.90;;;;;;5078339;28;20412;-80
2021/11/09 00:32:34;;;;;;;19.47;9.83;;;0.70;99.90;;;;;;5078283;28;20465;-80
2021/11/09 00:35:00;;;;;;;17.43;9.30;;;;;;;;;;5060008;28;20442;-80
2021/11/09 00:37:27;;;;;;;18.17;9.60;;;;;;;;;;5078768;28;20498;-80
2021/11/09 00:39:53;;;;;;;20.70;9.87;;;0.70;99.90;;;;;;5060536;28;20441;-80
2021/11/09 00:42:19;;;;;;;16.33;9.53;;;;;;;;;;5078370;28;20408;-80
2021/11/09 00:44:45;;;;;;;16.63;9.70;;;;;;;;;;5059104;28;20663;-80
2021/11/09 00:47:11;;;;;;;16.63;9.67;;;0.60;99.90;;;;;;5077574;28;20412;-80
2021/11/09 00:49:37;;;;;;;16.03;9.37;;;;;;;;;;5077472;28;20173;-80
2021/11/09 00:52:04;;;;;;;17.00;9.17;;;0.60;99.90;;;;;;5078009;28;20256;-81
2021/11/09 00:54:30;;;;;;;20.57;10.47;;;;;;;;;;5061093;28;20554;-80
2021/11/09 00:56:56;;;;;;;14.53;9.07;;;;;;;;;;5079889;28;20494;-81
2021/11/09 00:59:22;;;;;;;19.80;9.53;;;;;;;;;;5063866;28;20416;-80
2021/11/09 01:01:48;;;;;;;16.70;9.03;;;;;;;;;;5068315;28;20419;-80
2021/11/09 01:04:14;;;;;;;16.03;8.77;;;;;;;;;;5062725;28;20495;-80
2021/11/09 01:06:40;;;;;;;19.47;8.57;;;0.50;99.90;;;;;;5063087;28;20439;-80
2021/11/09 01:09:06;;;;;;;12.03;7.63;;;0.50;99.90;;;;;;5062681;28;20829;-79
2021/11/09 01:11:34;;;;;;;10.63;7.83;;;0.60;99.90;;;;;;5080814;28;20181;-80
2021/11/09 01:14:01;;;;;;;20.03;9.13;;;0.60;99.90;;;;;;5062276;28;20506;-82
2021/11/09 01:16:27;;;;;;;14.83;8.60;;;;;;;;;;5079469;28;20755;-80
2021/11/09 01:18:56;;;;;;;19.30;9.13;;;0.60;99.90;;;;;;5062484;28;20967;-80
2021/11/09 01:21:22;;;;;;;14.17;8.40;;;0.90;99.90;;;;;;5063663;28;20914;-80
2021/11/09 01:23:54;;;;;;;15.23;8.63;;;0.60;99.90;;;;;;5080183;28;20439;-80
2021/11/09 01:26:21;;;;;;;19.40;8.13;;;0.50;99.90;;;;;;5063522;28;20411;-80
2021/11/09 01:28:50;;;;;;;16.67;8.40;;;1.60;99.90;;;;;;5062364;28;20448;-80
2021/11/09 01:31:15;;;;;;;12.23;7.50;;;0.70;99.90;;;;;;5079645;28;20415;-80
2021/11/09 01:33:42;;;;;;;14.00;8.37;;;0.50;99.90;;;;;;5061877;28;20477;-80
2021/11/09 01:36:08;;;;;;;13.67;7.10;;;0.50;99.90;;;;;;5061703;28;20183;-80
2021/11/09 01:38:34;;;;;;;11.17;8.33;;;0.50;99.90;;;;;;5079511;28;20412;-80
2021/11/09 01:41:00;;;;;;;16.90;8.47;;;0.50;99.90;;;;;;5061686;28;20555;-80
2021/11/09 01:43:27;;;;;;;18.30;7.80;;;0.50;99.90;;;;;;5078203;28;20311;-80
2021/11/09 01:45:54;;;;;;;14.90;8.90;;;0.50;99.90;;;;;;5077488;28;20407;-80
2021/11/09 01:48:20;;;;;;;14.13;7.93;;;;;;;;;;5079681;28;20808;-80
2021/11/09 01:50:54;;;;;;;15.03;8.67;;;0.50;99.90;;;;;;5079569;28;20399;-80
2021/11/09 01:53:20;;;;;;;18.13;8.67;;;0.60;99.90;;;;;;5061192;28;20475;-80
2021/11/09 01:55:47;;;;;;;15.00;7.57;;;0.70;99.90;;;;;;5061576;28;20511;-80
2021/11/09 01:58:14;;;;;;;11.67;7.27;;;0.80;99.90;;;;;;5060916;28;20431;-80
2021/11/09 02:00:54;;;;;;;17.40;8.93;;;1.20;99.90;;;;;;5061040;28;20428;-80
2021/11/09 02:03:20;;;;;;;14.03;7.67;;;0.80;99.90;;;;;;5061277;28;20959;-80
2021/11/09 02:05:49;;;;;;;12.17;8.07;;;;;;;;;;5078868;28;20414;-80
2021/11/09 02:08:15;;;;;;;18.20;7.93;;;;;;;;;;5079460;28;20403;-80
2021/11/09 02:10:43;;;;;;;19.83;9.53;;;0.90;99.90;;;;;;5079782;28;20403;-80
2021/11/09 02:13:10;;;;;;;23.20;9.47;;;1.00;99.90;;;;;;5078413;28;20470;-80
2021/11/09 02:15:37;;;;;;;13.67;8.27;;;0.30;99.90;;;;;;5061311;28;20775;-80
2021/11/09 02:18:05;;;;;;;13.90;7.77;;;1.00;99.90;;;;;;5060884;28;20419;-80
2021/11/09 02:20:31;;;;;;;15.57;7.87;;;;;;;;;;5078862;28;20439;-80
2021/11/09 02:22:58;;;;;;;18.47;8.77;;;1.30;99.90;;;;;;5079249;28;20411;-80
2021/11/09 02:25:25;;;;;;;15.70;8.60;;;1.30;99.90;;;;;;5079246;28;20421;-80
2021/11/09 02:27:51;;;;;;;19.07;7.57;;;;;;;;;;5079288;28;20423;-80
2021/11/09 02:30:23;;;;;;;15.93;8.17;;;1.20;99.90;;;;;;5061256;28;20475;-81
2021/11/09 02:32:49;;;;;;;16.60;8.43;;;1.30;99.90;;;;;;5061062;28;20459;-80
2021/11/09 02:35:15;;;;;;;23.13;8.27;;;;;;;;;;5078823;28;20414;-80
2021/11/09 02:37:41;;;;;;;14.60;8.73;;;;;;;;;;5061602;28;20420;-80
2021/11/09 02:40:08;;;;;;;15.87;8.37;;;1.30;99.90;;;;;;5061361;28;20498;-80
2021/11/09 02:42:37;;;;;;;13.67;8.43;;;1.20;99.90;;;;;;5085818;28;20475;-79
2021/11/09 02:45:11;;;;;;;14.73;7.23;;;1.20;99.90;;;;;;5092722;28;20431;-79
2021/11/09 02:47:45;;;;;;;16.60;8.50;;;1.00;99.90;;;;;;5091585;28;20417;-79
2021/11/09 02:50:12;;;;;;;16.13;7.87;;;1.10;99.90;;;;;;5066820;28;20403;-80
2021/11/09 02:52:46;;;;;;;17.50;8.20;;;1.90;99.90;;;;;;5059758;28;20463;-80
2021/11/09 02:55:12;;;;;;;13.23;7.53;;;0.90;99.90;;;;;;5077356;28;20438;-80
2021/11/09 02:57:49;;;;;;;13.03;8.27;;;;;;;;;;5060098;28;20782;-80
2021/11/09 03:02:47;;;;;;;18.00;8.67;;;0.70;99.90;;;;;;5077433;28;20951;-80
2021/11/09 03:07:45;;;;;;;17.37;8.83;;;;;;;;;;5077743;28;20415;-80
2021/11/09 03:10:32;;;;;;;16.07;7.73;;;0.40;99.90;;;;;;5058980;28;20186;-80
2021/11/09 03:12:58;;;;;;;15.13;6.40;;;;;;;;;;5059050;28;20455;-80
2021/11/09 03:15:27;;;;;;;15.73;7.67;;;;;;;;;;5059037;28;20497;-80
2021/11/09 03:18:01;;;;;;;17.60;7.97;;;0.30;99.90;;;;;;5077991;28;20404;-80
2021/11/09 03:45:26;;;;;;;11.10;7.60;;;;;;;;;;5077578;28;20452;-80
2021/11/09 03:47:36;;;;;;;17.97;7.30;;;0.10;99.90;;;;;;5066091;28;20430;-80
2021/11/09 03:50:02;;;;;;;13.50;7.60;;;-0.30;99.90;;;;;;5059549;28;20470;-80
2021/11/09 03:52:31;;;;;;;14.80;7.83;;;-0.20;99.90;;;;;;5076036;28;20920;-80
2021/11/09 03:55:03;;;;;;;12.70;7.60;;;-0.30;99.90;;;;;;5060132;28;20438;-80
2021/11/09 03:57:36;;;;;;;11.20;7.50;;;-0.40;99.90;;;;;;5059762;28;20471;-80
2021/11/09 04:02:55;;;;;;;15.20;7.37;;;-0.40;99.90;;;;;;5077863;28;20425;-80
2021/11/09 04:05:25;;;;;;;14.60;6.90;;;-0.50;99.90;;;;;;5059372;28;20568;-79
2021/11/09 04:08:10;;;;;;;14.93;7.87;;;;;;;;;;5059494;28;20469;-80
2021/11/09 04:18:21;;;;;;;16.13;7.87;;;-0.60;99.90;;;;;;5078501;28;20532;-80
2021/11/09 04:21:00;;;;;;;20.67;8.27;;;-0.60;99.90;;;;;;5060240;28;20443;-80
2021/11/09 04:48:38;;;;;;;13.40;7.17;;;-0.80;99.90;;;;;;5092142;28;20403;-79
2021/11/09 05:10:10;;;;;;;17.87;9.23;;;-0.40;99.90;;;;;;5079846;28;20408;-80
2021/11/09 05:12:36;;;;;;;26.37;10.77;;;-0.20;99.90;;;;;;5079832;28;20440;-80
2021/11/09 05:15:02;;;;;;;20.50;10.07;;;-0.20;99.90;;;;;;5061337;28;20473;-80
2021/11/09 05:17:28;;;;;;;17.13;10.10;;;-0.10;99.90;;;;;;5061487;28;20175;-80
2021/11/09 05:19:54;;;;;;;21.30;11.00;;;0.10;99.90;;;;;;5079536;28;20418;-80
2021/11/09 05:22:19;;;;;;;19.77;10.70;;;0.50;99.90;;;;;;5079392;28;20192;-80
2021/11/09 05:24:45;;;;;;;18.10;10.30;;;0.30;99.90;;;;;;5079351;28;20204;-80
2021/11/09 05:27:15;;;;;;;23.63;11.57;;;0.30;99.90;;;;;;5079759;28;20259;-80
2021/11/09 05:29:41;;;;;;;23.63;10.97;;;;;;;;;;5061537;28;20264;-80
2021/11/09 05:32:07;;;;;;;18.97;12.17;;;0.70;99.90;;;;;;5061912;28;20415;-80
2021/11/09 05:34:33;;;;;;;22.80;13.07;;;;;;;;;;5079184;28;20462;-80
2021/11/09 05:36:59;;;;;;;22.20;11.57;;;;;;;;;;5079264;28;20399;-80
2021/11/09 05:39:44;;;;;;;22.73;13.53;;;;;;;;;;5061348;28;20414;-80
2021/11/09 05:42:10;;;;;;;23.67;12.37;;;0.70;99.90;;;;;;5061543;28;20410;-80
2021/11/09 05:44:35;;;;;;;23.40;14.00;;;0.70;99.90;;;;;;5078278;28;20435;-80
2021/11/09 05:47:01;;;;;;;29.33;13.83;;;1.00;99.90;;;;;;5061957;28;21003;-80
2021/11/09 05:49:27;;;;;;;26.13;13.83;;;0.80;99.90;;;;;;5061770;28;20540;-80
2021/11/09 05:51:53;;;;;;;28.67;13.90;;;0.90;99.90;;;;;;5081200;28;20571;-80
2021/11/09 05:54:19;;;;;;;32.23;15.07;;;1.00;99.90;;;;;;5081301;28;20250;-80
2021/11/09 05:56:44;;;;;;;28.73;15.37;;;1.00;99.90;;;;;;5066724;28;20176;-80
2021/11/09 05:59:10;;;;;;;30.00;15.77;;;1.20;99.90;;;;;;5079636;28;20653;-80
2021/11/09 06:01:36;;;;;;;24.37;14.60;;;1.20;99.90;;;;;;5078348;28;20254;-80
2021/11/09 06:04:01;;;;;;;26.57;14.03;;;1.20;99.90;;;;;;5060373;28;20209;-80
2021/11/09 06:06:27;;;;;;;32.70;16.20;;;1.20;99.90;;;;;;5061741;28;20177;-80
2021/11/09 06:08:53;;;;;;;34.70;16.00;;;1.30;99.90;;;;;;5079394;28;20176;-80
2021/11/09 06:11:19;;;;;;;33.57;17.30;;;1.30;99.90;;;;;;5077071;28;20173;-80
2021/11/09 06:13:46;;;;;;;28.30;15.83;;;1.40;99.90;;;;;;5076649;28;20235;-80
2021/11/09 06:16:12;;;;;;;28.23;15.53;;;;;;;;;;5076191;28;20421;-79
2021/11/09 06:18:39;;;;;;;28.83;17.00;;;1.50;99.90;;;;;;5076513;28;20408;-80
2021/11/09 06:21:05;;;;;;;28.53;15.63;;;;;;;;;;5076078;28;20924;-80
2021/11/09 06:23:31;;;;;;;28.97;16.90;;;1.60;99.90;;;;;;5057852;28;20439;-80
2021/11/09 06:25:57;;;;;;;33.10;15.83;;;1.90;99.90;;;;;;5057614;28;20415;-80
2021/11/09 06:28:23;;;;;;;31.33;17.13;;;2.20;99.90;;;;;;5057337;28;20177;-79
2021/11/09 06:30:51;;;;;;;28.67;14.63;;;1.70;99.90;;;;;;5077440;28;20415;-82
2021/11/09 06:33:17;;;;;;;28.77;15.40;;;1.60;99.90;;;;;;5060228;28;20612;-81
2021/11/09 06:35:43;;;;;;;20.63;13.87;;;1.70;99.90;;;;;;5079001;28;20435;-81
2021/11/09 06:38:09;;;;;;;22.57;13.70;;;1.70;99.90;;;;;;5060919;28;20181;-81
2021/11/09 06:40:35;;;;;;;26.87;13.87;;;;;;;;;;5062010;28;20184;-81
2021/11/09 06:43:01;;;;;;;20.03;13.70;;;1.80;99.90;;;;;;5083856;28;20427;-81
2021/11/09 06:45:27;;;;;;;21.13;12.40;;;3.60;99.90;;;;;;5086702;28;20433;-81
2021/11/09 06:47:53;;;;;;;24.80;13.43;;;1.80;99.90;;;;;;5070393;28;20227;-81
2021/11/09 06:50:20;;;;;;;19.23;12.23;;;1.80;99.90;;;;;;5085181;28;20422;-81
2021/11/09 06:52:46;;;;;;;15.23;10.93;;;1.90;99.90;;;;;;5059757;28;20188;-81
2021/11/09 06:55:12;;;;;;;19.70;12.07;;;1.80;99.90;;;;;;5059593;28;20438;-81
2021/11/09 06:57:39;;;;;;;21.63;11.87;;;1.80;99.90;;;;;;5060083;28;20519;-81
2021/11/09 07:00:08;;;;;;;20.37;12.17;;;1.90;99.90;;;;;;5077868;28;20472;-81
2021/11/09 07:02:36;;;;;;;21.10;11.60;;;1.90;99.90;;;;;;5077529;28;20873;-81
2021/11/09 07:05:02;;;;;;;21.03;13.70;;;2.00;99.90;;;;;;5059308;28;20435;-82
2021/11/09 07:07:28;;;;;;;22.93;12.33;;;1.90;99.90;;;;;;5060267;28;20436;-81
2021/11/09 07:09:53;;;;;;;19.97;12.07;;;2.00;99.90;;;;;;5078902;28;20415;-81
2021/11/09 07:12:19;;;;;;;18.30;11.90;;;2.10;99.90;;;;;;5060715;28;20573;-82
2021/11/09 07:14:45;;;;;;;23.33;11.53;;;2.10;99.90;;;;;;5060333;28;20310;-81
2021/11/09 07:17:11;;;;;;;17.13;10.27;;;2.20;99.90;;;;;;5059599;28;20176;-81
2021/11/09 07:19:38;;;;;;;15.17;9.57;;;;;;;;;;5059076;28;20580;-81
2021/11/09 07:22:05;;;;;;;13.47;9.13;;;2.20;99.90;;;;;;5059184;28;20426;-81
2021/11/09 07:24:33;;;;;;;17.80;9.90;;;;;;;;;;5076877;28;20536;-81
2021/11/09 07:26:59;;;;;;;18.33;9.80;;;2.10;99.90;;;;;;5077191;28;20407;-81
2021/11/09 07:29:25;;;;;;;16.50;10.07;;;;;;;;;;5058792;28;20418;-81
2021/11/09 07:31:54;;;;;;;18.43;9.80;;;;;;;;;;5077827;28;20395;-81
2021/11/09 07:34:20;;;;;;;14.20;9.27;;;2.40;99.90;;;;;;5059883;28;20470;-82
2021/11/09 07:36:46;;;;;;;12.43;9.13;;;2.50;99.90;;;;;;5078995;28;20748;-82
2021/11/09 07:39:12;;;;;;;11.20;7.97;;;;;;;;;;5078851;28;20173;-81
2021/11/09 07:41:42;;;;;;;15.37;8.83;;;2.50;99.90;;;;;;5060293;28;20490;-82
2021/11/09 07:44:08;;;;;;;13.70;9.00;;;;;;;;;;5076539;28;21005;-81
2021/11/09 07:46:37;;;;;;;19.87;9.27;;;2.30;99.90;;;;;;5060040;28;20423;-82
2021/11/09 07:49:04;;;;;;;11.80;7.83;;;2.30;99.90;;;;;;5061026;28;20490;-81
2021/11/09 07:51:30;;;;;;;13.70;8.07;;;;;;;;;;5060214;28;20418;-82
2021/11/09 07:53:58;;;;;;;18.47;9.90;;;2.50;99.90;;;;;;5078512;28;20505;-82
2021/11/09 07:56:29;;;;;;;12.93;8.70;;;2.50;99.90;;;;;;5078763;28;20766;-81
2021/11/09 08:01:38;;;;;;;14.07;8.73;;;;;;;;;;5079202;28;20403;-82
2021/11/09 08:06:50;;;;;;;13.07;9.10;;;2.70;99.90;;;;;;5079791;28;20848;-80
2021/11/09 08:11:45;;;;;;;12.97;8.90;;;2.90;99.90;;;;;;5084315;28;20465;-81
2021/11/09 08:14:11;;;;;;;12.97;8.60;;;3.10;99.90;;;;;;5066047;28;20470;-81
2021/11/09 08:16:37;;;;;;;13.00;8.43;;;3.20;99.90;;;;;;5082709;28;20406;-82
2021/11/09 08:19:04;;;;;;;11.20;7.77;;;;;;;;;;5084496;28;20399;-81
2021/11/09 08:21:31;;;;;;;10.23;8.00;;;3.60;99.90;;;;;;5084595;28;20461;-82
2021/11/09 08:23:57;;;;;;;9.00;7.33;;;3.80;99.90;;;;;;5089388;28;20443;-81
2021/11/09 08:26:24;;;;;;;10.17;7.50;;;4.00;99.90;;;;;;5065892;28;20419;-81
2021/11/09 08:28:52;;;;;;;13.17;6.63;;;4.30;99.90;;;;;;5082236;28;20423;-81
2021/11/09 08:31:20;;;;;;;9.93;7.07;;;4.50;99.90;;;;;;5064277;28;20450;-82
2021/11/09 08:33:48;;;;;;;7.47;5.90;;;5.00;99.90;;;;;;5064190;28;20482;-82
2021/11/09 08:36:15;;;;;;;9.13;6.17;;;5.50;99.90;;;;;;5081966;28;20415;-82
2021/11/09 08:38:42;;;;;;;9.43;5.77;;;6.10;99.90;;;;;;5064740;28;20434;-82
2021/11/09 08:41:11;;;;;;;11.00;5.30;;;6.40;99.90;;;;;;5065037;28;20487;-82
2021/11/09 08:43:39;;;;;;;7.47;5.07;;;6.90;99.90;;;;;;5083326;28;20193;-83
2021/11/09 08:48:39;;;;;;;6.53;4.70;;;7.70;99.90;;;;;;5092731;28;20189;-80
2021/11/09 08:51:10;;;;;;;9.67;5.10;;;8.10;99.90;;;;;;5096148;28;20200;-81
2021/11/09 08:53:45;;;;;;;9.03;4.73;;;8.40;99.90;;;;;;5074404;28;20634;-81
2021/11/09 09:01:41;;;;;;;5.83;4.63;;;7.60;99.90;;;;;;5080823;28;20172;-81
2021/11/09 09:04:19;;;;;;;5.07;3.90;;;7.00;99.90;;;;;;5079967;28;20201;-82
2021/11/09 09:06:51;;;;;;;5.97;4.40;;;6.80;99.90;;;;;;5062841;28;20620;-82
2021/11/09 09:09:18;;;;;;;6.67;4.33;;;6.90;99.90;;;;;;5080325;28;20639;-82
2021/11/09 09:11:46;;;;;;;7.87;5.67;;;7.10;99.90;;;;;;5062051;28;20173;-82
2021/11/09 09:14:12;;;;;;;5.53;4.50;;;7.40;99.90;;;;;;5078820;28;20201;-82
2021/11/09 09:16:44;;;;;;;10.80;4.73;;;7.60;99.90;;;;;;5078917;28;20169;-82
2021/11/09 09:19:09;;;;;;;6.47;4.17;;;7.90;99.90;;;;;;5059874;28;20173;-82
2021/11/09 09:21:42;;;;;;;7.03;5.23;;;7.90;99.90;;;;;;5061223;28;20196;-82
2021/11/09 09:24:22;;;;;;;6.37;4.87;;;8.30;99.90;;;;;;5079130;28;20249;-81
2021/11/09 09:26:58;;;;;;;6.73;4.30;;;8.70;99.90;;;;;;5061151;28;20165;-81
2021/11/09 09:56:18;;;;;;;7.63;5.27;;;11.00;99.90;;;;;;5083830;28;20178;-83
2021/11/09 09:58:44;;;;;;;6.97;5.47;;;11.40;99.90;;;;;;5084260;28;20157;-82
2021/11/09 10:01:11;;;;;;;6.40;4.70;;;11.50;99.90;;;;;;5083005;28;20176;-82
2021/11/09 10:03:39;;;;;;;7.53;5.13;;;11.50;99.90;;;;;;5065255;28;20194;-82
2021/11/09 10:06:09;;;;;;;6.50;5.43;;;11.50;99.90;;;;;;5065861;28;20194;-83
2021/11/09 10:08:47;;;;;;;6.30;4.30;;;11.50;99.90;;;;;;5066391;28;20209;-83
2021/11/09 10:11:29;;;;;;;7.10;4.00;;;11.60;99.90;;;;;;5083966;28;20178;-81
2021/11/09 10:13:54;;;;;;;6.67;4.47;;;10.90;99.90;;;;;;5085269;28;20238;-82
2021/11/09 10:16:20;;;;;;;5.80;4.87;;;10.70;99.90;;;;;;5067016;28;20185;-81
2021/11/09 10:18:46;;;;;;;6.30;4.80;;;10.90;99.90;;;;;;5065966;28;20177;-82
2021/11/09 10:21:12;;;;;;;8.83;3.87;;;11.50;99.90;;;;;;5066415;28;20253;-82
2021/11/09 10:23:39;;;;;;;4.87;3.80;;;11.70;99.90;;;;;;5066666;28;20728;-81
2021/11/09 10:26:17;;;;;;;4.93;3.40;;;11.50;99.90;;;;;;5066669;28;20205;-81
2021/11/09 10:28:45;;;;;;;4.83;3.07;;;11.30;99.90;;;;;;5085786;28;20184;-82
2021/11/09 10:31:17;;;;;;;7.40;3.47;;;11.30;99.90;;;;;;5069839;28;20603;-82
2021/11/09 10:33:49;;;;;;;4.33;3.43;;;11.30;99.90;;;;;;5082525;28;20223;-82
2021/11/09 10:36:30;;;;;;;4.83;3.27;;;11.40;99.90;;;;;;5065289;28;20171;-82
2021/11/09 10:39:24;;;;;;;6.63;3.97;;;11.00;99.90;;;;;;5082808;28;20613;-82
2021/11/09 10:42:14;;;;;;;4.97;3.00;;;11.20;99.90;;;;;;5067026;28;20175;-82
2021/11/09 10:44:42;;;;;;;5.03;3.80;;;11.50;99.90;;;;;;5085248;28;20194;-82
2021/11/09 10:47:23;;;;;;;3.77;2.83;;;11.70;99.90;;;;;;5068692;28;20178;-82
2021/11/09 10:49:52;;;;;;;4.87;3.07;;;12.20;99.90;;;;;;5070799;28;20246;-82
2021/11/09 10:52:27;;;;;;;2.97;2.60;;;11.80;99.90;;;;;;5083664;28;20201;-82
2021/11/09 10:55:02;;;;;;;3.67;3.03;;;11.90;99.90;;;;;;5063606;28;20211;-82
2021/11/09 10:57:44;;;;;;;3.80;2.37;;;12.10;99.90;;;;;;5081772;28;20507;-83
2021/11/09 11:05:22;;;;;;;3.40;2.40;;;12.20;99.90;;;;;;5083302;28;20316;-82
2021/11/09 11:07:55;;;;;;;2.13;1.83;;;12.30;99.90;;;;;;5082052;28;20546;-83
2021/11/09 11:10:30;;;;;;;3.67;1.97;;;12.10;99.90;;;;;;5065079;28;20170;-82
2021/11/09 11:13:15;;;;;;;2.80;2.00;;;12.10;99.90;;;;;;5083758;28;20189;-83
2021/11/09 11:16:03;;;;;;;3.07;2.03;;;12.60;99.90;;;;;;5083137;28;20167;-83
2021/11/09 11:18:40;;;;;;;2.93;2.07;;;13.20;99.90;;;;;;5084845;28;20199;-82
2021/11/09 11:21:09;;;;;;;4.47;1.90;;;13.50;99.90;;;;;;5066043;28;20199;-82
2021/11/09 11:23:36;;;;;;;6.77;5.50;;;13.50;99.90;;;;;;5065738;28;20203;-82
2021/11/09 11:26:05;;;;;;;6.17;4.40;;;13.70;99.90;;;;;;5064762;28;20248;-82
2021/11/09 11:28:32;;;;;;;4.60;2.87;;;13.80;99.80;;;;;;5065067;28;20645;-82
2021/11/09 11:30:58;;;;;;;2.87;2.20;;;13.70;99.90;;;;;;5082958;28;20188;-81
2021/11/09 11:33:25;;;;;;;5.70;2.33;;;13.50;99.10;;;;;;5065518;28;20252;-82
2021/11/09 11:35:52;;;;;;;4.00;2.10;;;13.80;98.60;;;;;;5065646;28;20202;-82
2021/11/09 11:38:20;;;;;;;2.93;2.27;;;13.70;98.30;;;;;;5089216;28;20703;-81
2021/11/09 11:40:53;;;;;;;3.60;2.20;;;13.80;97.30;;;;;;5089378;28;20182;-84
2021/11/09 11:43:47;;;;;;;3.03;2.27;;;13.90;97.60;;;;;;5063815;28;20224;-82
2021/11/09 11:46:33;;;;;;;2.70;2.00;;;13.90;97.10;;;;;;5082069;28;20176;-82
2021/11/09 11:49:00;;;;;;;3.07;1.90;;;13.70;97.20;;;;;;5050985;28;20196;-83
2021/11/09 11:51:28;;;;;;;2.33;1.83;;;14.00;96.80;;;;;;5064468;28;20181;-82
2021/11/09 11:53:54;;;;;;;2.40;1.87;;;14.20;95.00;;;;;;5081997;28;20234;-82
2021/11/09 11:56:39;;;;;;;5.17;2.50;;;14.20;95.00;;;;;;5065592;28;20176;-83
2021/11/09 11:59:22;;;;;;;8.20;2.70;;;14.60;94.10;;;;;;5067501;28;20653;-83
2021/11/09 12:01:58;;;;;;;4.33;2.30;;;15.00;93.80;;;;;;5066525;28;20169;-83
2021/11/09 12:04:37;;;;;;;2.33;1.83;;;15.00;92.30;;;;;;5082056;28;20200;-83
2021/11/09 12:07:03;;;;;;;8.07;2.77;;;14.30;91.80;;;;;;5084243;28;20375;-82
2021/11/09 12:09:41;;;;;;;3.43;1.77;;;13.80;92.50;;;;;;5066647;28;20631;-82
2021/11/09 12:12:19;;;;;;;3.30;2.17;;;13.70;93.20;;;;;;5084286;28;20176;-82
2021/11/09 12:14:50;;;;;;;4.47;2.27;;;14.10;92.80;;;;;;5065161;28;20209;-83
2021/11/09 12:17:35;;;;;;;3.73;2.40;;;14.40;92.50;;;;;;5082450;28;20243;-82
2021/11/09 12:20:15;;;;;;;5.80;2.27;;;14.70;92.50;;;;;;5062897;28;20181;-82
2021/11/09 12:22:44;;;;;;;2.73;2.03;;;14.60;91.50;;;;;;5081896;28;20229;-83
2021/11/09 12:25:35;;;;;;;4.27;1.87;;;14.70;91.00;;;;;;5062217;28;20216;-82
2021/11/09 12:28:04;;;;;;;5.27;1.83;;;14.50;90.20;;;;;;5080160;28;20164;-82
2021/11/09 12:30:34;;;;;;;2.20;1.80;;;14.10;90.10;;;;;;5062129;28;20176;-82
2021/11/09 12:33:14;;;;;;;2.87;1.77;;;14.00;90.20;;;;;;5060630;28;20203;-82
2021/11/09 12:35:41;;;;;;;4.37;2.40;;;14.20;90.10;;;;;;5076937;28;20160;-81
2021/11/09 12:38:12;;;;;;;3.47;2.07;;;14.60;87.60;;;;;;5057678;28;20581;-82
2021/11/09 12:40:46;;;;;;;4.70;2.97;;;14.80;87.90;;;;;;5058176;28;20193;-82
2021/11/09 12:43:29;;;;;;;4.07;3.00;;;15.60;87.00;;;;;;5081304;28;20211;-82
2021/11/09 12:46:28;;;;;;;4.57;2.00;;;15.80;85.60;;;;;;5063641;28;20177;-82
2021/11/09 12:49:09;;;;;;;2.70;1.70;;;15.40;85.20;;;;;;5066120;28;20513;-82
2021/11/09 12:51:47;;;;;;;2.63;2.10;;;15.00;85.20;;;;;;5064677;28;20176;-83
2021/11/09 12:54:16;;;;;;;5.40;1.80;;;15.00;84.90;;;;;;5085747;28;20210;-83
2021/11/09 12:56:45;;;;;;;2.27;2.07;;;15.20;85.50;;;;;;5070864;28;20187;-83
2021/11/09 13:09:54;;;;;;;2.23;1.60;;;12.00;90.80;;;;;;5091975;28;20253;-81
2021/11/09 13:12:30;;;;;;;3.93;2.50;;;10.80;92.20;;;;;;5074317;28;20187;-82
2021/11/09 13:15:10;;;;;;;3.90;2.23;;;10.00;93.90;;;;;;5073943;28;20204;-81
2021/11/09 13:17:44;;;;;;;2.47;1.70;;;9.50;94.80;;;;;;5075264;28;20168;-82
2021/11/09 13:20:22;;;;;;;2.00;1.60;;;8.80;95.80;;;;;;5093384;28;20623;-82
2021/11/09 13:23:07;;;;;;;3.40;1.70;;;8.20;96.80;;;;;;5078940;28;20177;-82
2021/11/09 13:25:44;;;;;;;2.83;1.77;;;8.20;97.10;;;;;;5076655;28;20179;-82
2021/11/09 13:28:16;;;;;;;1.90;1.57;;;8.10;98.10;;;;;;5067881;28;20190;-82
2021/11/09 13:30:43;;;;;;;2.67;1.70;;;7.90;98.30;;;;;;5067051;28;20177;-82
2021/11/09 13:33:09;;;;;;;2.87;2.00;;;7.80;98.20;;;;;;5086709;28;20211;-82
2021/11/09 13:35:39;;;;;;;3.43;2.10;;;7.80;98.80;;;;;;5068398;28;20177;-82
2021/11/09 13:38:09;;;;;;;4.03;1.67;;;7.80;98.60;;;;;;5067841;28;20177;-82
2021/11/09 13:40:36;;;;;;;3.37;1.90;;;7.70;98.90;;;;;;5066734;28;20178;-81
2021/11/09 13:43:05;;;;;;;1.80;1.60;;;7.60;99.20;;;;;;5065901;28;20314;-81
2021/11/09 13:45:32;;;;;;;2.70;2.17;;;7.60;99.40;;;;;;5065741;28;20195;-81
2021/11/09 13:47:58;;;;;;;4.17;2.23;;;7.70;99.60;;;;;;5083604;28;20237;-81
2021/11/09 13:50:28;;;;;;;3.33;2.13;;;7.60;99.90;;;;;;5083863;28;20180;-81
2021/11/09 13:52:55;;;;;;;3.47;2.20;;;7.60;99.90;;;;;;5083373;28;20173;-81
2021/11/09 13:55:22;;;;;;;2.10;1.83;;;7.60;99.90;;;;;;5064876;28;20173;-82
2021/11/09 13:57:48;;;;;;;2.17;1.70;;;7.60;99.90;;;;;;5081214;28;20171;-81
2021/11/09 14:00:33;;;;;;;3.17;2.50;;;7.60;99.90;;;;;;5063597;28;20187;-81
2021/11/09 14:03:21;;;;;;;3.60;2.13;;;7.60;99.90;;;;;;5062879;28;20269;-81
2021/11/09 14:05:57;;;;;;;2.47;2.13;;;7.60;99.90;;;;;;5063201;28;20187;-81
2021/11/09 14:08:57;;;;;;;5.73;2.70;;;7.50;99.90;;;;;;5062219;28;20273;-82
2021/11/09 14:16:54;;;;;;;3.03;2.60;;;7.40;99.90;;;;;;5081023;28;20169;-81
2021/11/09 14:19:36;;;;;;;6.43;3.33;;;7.40;99.90;;;;;;5063080;28;20207;-81
2021/11/09 14:22:16;;;;;;;6.07;3.30;;;7.30;99.90;;;;;;5082420;28;20756;-81
2021/11/09 14:24:58;;;;;;;3.20;2.87;;;7.20;99.90;;;;;;5081354;28;20236;-81
2021/11/09 14:27:34;;;;;;;4.17;2.67;;;7.00;99.90;;;;;;5061872;28;20194;-81
2021/11/09 14:30:00;;;;;;;4.00;2.50;;;7.00;99.90;;;;;;5061421;28;20173;-82
2021/11/09 14:32:33;;;;;;;4.13;2.57;;;7.00;99.90;;;;;;5061046;28;20427;-82
2021/11/09 14:35:05;;;;;;;3.73;2.73;;;7.00;99.90;;;;;;5061261;28;20219;-82
2021/11/09 14:37:35;;;;;;;3.53;2.63;;;7.00;99.90;;;;;;5060824;28;20260;-81
2021/11/09 14:40:13;;;;;;;2.77;2.50;;;6.90;99.90;;;;;;5078370;28;20153;-82
2021/11/09 14:48:13;;;;;;;4.53;2.80;;;6.80;99.90;;;;;;5079281;28;20468;-81
2021/11/09 14:50:53;;;;;;;2.70;2.50;;;6.70;99.90;;;;;;5079265;28;20195;-80
2021/11/09 14:53:30;;;;;;;4.10;3.10;;;6.70;99.90;;;;;;5079355;28;20209;-81
2021/11/09 14:56:04;;;;;;;5.13;3.30;;;6.60;99.90;;;;;;5061876;28;20224;-81
2021/11/09 14:58:49;;;;;;;4.87;3.30;;;6.50;99.90;;;;;;5078751;28;20430;-81
2021/11/09 15:01:40;;;;;;;4.73;3.20;;;6.40;99.90;;;;;;5061317;28;20435;-82
2021/11/09 15:04:20;;;;;;;6.37;3.33;;;6.40;99.90;;;;;;5061387;28;20828;-81
2021/11/09 15:09:49;;;;;;;4.80;2.80;;;6.30;99.90;;;;;;5080641;28;20394;-81
2021/11/09 15:36:59;;;;;;;4.00;3.10;;;5.90;99.90;;;;;;5082678;28;20176;-82
2021/11/09 15:39:28;;;;;;;7.40;4.50;;;5.80;99.90;;;;;;5067567;28;20439;-80
2021/11/09 15:41:56;;;;;;;8.97;4.20;;;5.60;99.90;;;;;;5076157;28;20909;-81
2021/11/09 15:44:22;;;;;;;6.10;4.10;;;;;;;;;;5057047;28;20445;-81
2021/11/09 15:46:54;;;;;;;7.10;4.37;;;5.60;99.90;;;;;;5056874;28;20435;-80
2021/11/09 15:49:20;;;;;;;4.83;3.57;;;;;;;;;;5076407;28;20411;-81
2021/11/09 15:51:46;;;;;;;5.57;4.03;;;;;;;;;;5078817;28;20415;-82
2021/11/09 15:54:12;;;;;;;6.33;4.27;;;;;;;;;;5059825;28;20463;-82
2021/11/09 15:56:39;;;;;;;4.53;3.97;;;5.10;99.90;;;;;;5060305;28;20434;-82
2021/11/09 15:59:06;;;;;;;5.67;4.03;;;;;;;;;;5061414;28;20502;-83
2021/11/09 16:01:33;;;;;;;21.17;5.23;;;;;;;;;;5062653;28;20415;-82
2021/11/09 16:03:59;;;;;;;5.80;4.37;;;;;;;;;;5062401;28;20430;-83
2021/11/09 16:06:28;;;;;;;20.87;7.40;;;5.10;99.90;;;;;;5064129;28;20976;-83
2021/11/09 16:08:55;;;;;;;22.73;6.10;;;;;;;;;;5064427;28;20181;-83
2021/11/09 16:11:21;;;;;;;18.17;6.00;;;;;;;;;;5065289;28;20449;-83
2021/11/09 16:13:47;;;;;;;15.07;5.43;;;;;;;;;;5067239;28;20475;-83
2021/11/09 16:16:13;;;;;;;11.87;5.97;;;4.60;99.90;;;;;;5090955;28;20410;-82
2021/11/09 16:18:39;;;;;;;10.80;5.73;;;;;;;;;;5071975;28;20169;-82